Terminal Aerodrome Forecast
Issued by NWS

Home | Current Version | Previous Version | Text Only | Print | Product List | Glossary On
Versions: 1 2 3 4 5 6 7 8 9 10 11 12 13 14 15 16 17 18 19 20 21 22 23
000
FTUS43 KPAH 162300
TAFCGI
TAF
KCGI 162321Z 1700/1724 31012KT P6SM SCT015 BKN025
      TEMPO 1700/1703 32009KT BKN015
     FM170600 31007KT P6SM SCT025
     FM171500 34004KT P6SM SCT150 BKN250=

USA.gov is the U.S. government's official web portal to all federal, state and local government web resources and services.